sensor_id;sensor_type;location;lat;lon;timestamp;temperature;humidity
13231;DHT22;6681;53.254;10.398;2023-08-24T00:00:13;20.60;99.90
13231;DHT22;6681;53.254;10.398;2023-08-24T00:02:38;20.60;99.90
13231;DHT22;6681;53.254;10.398;2023-08-24T00:05:04;20.60;99.90
13231;DHT22;6681;53.254;10.398;2023-08-24T00:07:31;20.60;99.90
13231;DHT22;6681;53.254;10.398;2023-08-24T00:09:58;20.60;99.90
13231;DHT22;6681;53.254;10.398;2023-08-24T00:12:23;20.60;99.90
13231;DHT22;6681;53.254;10.398;2023-08-24T00:14:49;20.60;99.90
13231;DHT22;6681;53.254;10.398;2023-08-24T00:17:15;20.60;99.90
13231;DHT22;6681;53.254;10.398;2023-08-24T00:19:40;20.50;99.90
13231;DHT22;6681;53.254;10.398;2023-08-24T00:22:06;20.50;99.90
13231;DHT22;6681;53.254;10.398;2023-08-24T00:24:31;20.50;99.90
13231;DHT22;6681;53.254;10.398;2023-08-24T00:27:00;20.50;99.90
13231;DHT22;6681;53.254;10.398;2023-08-24T00:29:26;20.50;99.90
13231;DHT22;6681;53.254;10.398;2023-08-24T00:31:51;20.50;99.90
13231;DHT22;6681;53.254;10.398;2023-08-24T00:34:19;20.50;99.90
13231;DHT22;6681;53.254;10.398;2023-08-24T00:36:45;20.50;99.90
13231;DHT22;6681;53.254;10.398;2023-08-24T00:39:11;20.50;99.90
13231;DHT22;6681;53.254;10.398;2023-08-24T00:41:37;20.50;99.90
13231;DHT22;6681;53.254;10.398;2023-08-24T00:44:03;20.50;99.90
13231;DHT22;6681;53.254;10.398;2023-08-24T00:46:32;20.40;99.90
13231;DHT22;6681;53.254;10.398;2023-08-24T00:48:57;20.50;99.90
13231;DHT22;6681;53.254;10.398;2023-08-24T00:51:24;20.40;99.90
13231;DHT22;6681;53.254;10.398;2023-08-24T00:53:50;20.40;1.00
13231;DHT22;6681;53.254;10.398;2023-08-24T00:56:16;20.40;1.00
13231;DHT22;6681;53.254;10.398;2023-08-24T00:58:41;20.30;1.00
13231;DHT22;6681;53.254;10.398;2023-08-24T01:01:08;20.30;99.90
13231;DHT22;6681;53.254;10.398;2023-08-24T01:03:34;20.30;99.90
13231;DHT22;6681;53.254;10.398;2023-08-24T01:05:59;20.30;1.00
13231;DHT22;6681;53.254;10.398;2023-08-24T01:08:25;20.30;1.00
13231;DHT22;6681;53.254;10.398;2023-08-24T01:11:13;20.30;1.00
13231;DHT22;6681;53.254;10.398;2023-08-24T01:14:07;20.30;1.00
13231;DHT22;6681;53.254;10.398;2023-08-24T01:16:34;20.30;1.00
13231;DHT22;6681;53.254;10.398;2023-08-24T01:19:02;20.30;1.00
13231;DHT22;6681;53.254;10.398;2023-08-24T01:21:30;20.20;1.00
13231;DHT22;6681;53.254;10.398;2023-08-24T01:24:04;20.20;1.00
13231;DHT22;6681;53.254;10.398;2023-08-24T01:26:37;20.20;1.00
13231;DHT22;6681;53.254;10.398;2023-08-24T01:29:04;20.10;1.00
13231;DHT22;6681;53.254;10.398;2023-08-24T01:31:30;20.10;1.00
13231;DHT22;6681;53.254;10.398;2023-08-24T01:33:56;20.10;1.00
13231;DHT22;6681;53.254;10.398;2023-08-24T01:36:25;20.10;1.00
13231;DHT22;6681;53.254;10.398;2023-08-24T01:38:59;20.10;1.00
13231;DHT22;6681;53.254;10.398;2023-08-24T01:41:35;20.10;1.00
13231;DHT22;6681;53.254;10.398;2023-08-24T01:44:04;20.10;1.00
13231;DHT22;6681;53.254;10.398;2023-08-24T01:46:33;20.10;1.00
13231;DHT22;6681;53.254;10.398;2023-08-24T01:49:00;20.00;1.00
13231;DHT22;6681;53.254;10.398;2023-08-24T01:51:26;20.10;1.00
13231;DHT22;6681;53.254;10.398;2023-08-24T01:53:52;20.00;1.00
13231;DHT22;6681;53.254;10.398;2023-08-24T01:56:18;20.00;1.00
13231;DHT22;6681;53.254;10.398;2023-08-24T01:58:44;20.00;1.00
13231;DHT22;6681;53.254;10.398;2023-08-24T02:01:09;20.00;1.00
13231;DHT22;6681;53.254;10.398;2023-08-24T02:03:38;19.90;1.00
13231;DHT22;6681;53.254;10.398;2023-08-24T02:06:05;19.90;1.00
13231;DHT22;6681;53.254;10.398;2023-08-24T02:08:32;19.90;1.00
13231;DHT22;6681;53.254;10.398;2023-08-24T02:10:58;19.90;1.00
13231;DHT22;6681;53.254;10.398;2023-08-24T02:13:24;19.90;1.00
13231;DHT22;6681;53.254;10.398;2023-08-24T02:15:49;20.00;1.00
13231;DHT22;6681;53.254;10.398;2023-08-24T02:18:15;19.90;1.00
13231;DHT22;6681;53.254;10.398;2023-08-24T02:20:41;19.90;1.00
13231;DHT22;6681;53.254;10.398;2023-08-24T02:23:06;19.80;1.00
13231;DHT22;6681;53.254;10.398;2023-08-24T02:25:32;19.80;1.00
13231;DHT22;6681;53.254;10.398;2023-08-24T02:27:59;19.80;1.00
13231;DHT22;6681;53.254;10.398;2023-08-24T02:30:24;19.70;1.00
13231;DHT22;6681;53.254;10.398;2023-08-24T02:32:50;19.70;1.00
13231;DHT22;6681;53.254;10.398;2023-08-24T02:35:16;19.60;1.00
13231;DHT22;6681;53.254;10.398;2023-08-24T02:37:43;19.60;1.00
13231;DHT22;6681;53.254;10.398;2023-08-24T02:40:09;19.60;1.00
13231;DHT22;6681;53.254;10.398;2023-08-24T02:42:35;17.10;1.00
13231;DHT22;6681;53.254;10.398;2023-08-24T02:45:01;19.50;1.00
13231;DHT22;6681;53.254;10.398;2023-08-24T02:47:26;19.50;1.00
13231;DHT22;6681;53.254;10.398;2023-08-24T02:49:52;19.50;1.00
13231;DHT22;6681;53.254;10.398;2023-08-24T02:52:18;19.50;1.00
13231;DHT22;6681;53.254;10.398;2023-08-24T02:54:44;19.40;1.00
13231;DHT22;6681;53.254;10.398;2023-08-24T02:57:09;19.40;1.00
13231;DHT22;6681;53.254;10.398;2023-08-24T02:59:35;19.40;1.00
13231;DHT22;6681;53.254;10.398;2023-08-24T03:02:01;19.40;1.00
13231;DHT22;6681;53.254;10.398;2023-08-24T03:04:27;19.40;1.00
13231;DHT22;6681;53.254;10.398;2023-08-24T03:06:52;19.40;1.00
13231;DHT22;6681;53.254;10.398;2023-08-24T03:09:18;19.30;1.00
13231;DHT22;6681;53.254;10.398;2023-08-24T03:11:44;19.30;1.00
13231;DHT22;6681;53.254;10.398;2023-08-24T03:14:09;19.20;1.00
13231;DHT22;6681;53.254;10.398;2023-08-24T03:16:37;19.20;1.00
13231;DHT22;6681;53.254;10.398;2023-08-24T03:19:04;19.20;1.00
13231;DHT22;6681;53.254;10.398;2023-08-24T03:21:29;19.20;1.00
13231;DHT22;6681;53.254;10.398;2023-08-24T03:23:55;19.20;1.00
13231;DHT22;6681;53.254;10.398;2023-08-24T03:26:21;19.10;1.00
13231;DHT22;6681;53.254;10.398;2023-08-24T03:28:48;19.10;1.00
13231;DHT22;6681;53.254;10.398;2023-08-24T03:31:14;19.00;1.00
13231;DHT22;6681;53.254;10.398;2023-08-24T03:33:40;19.00;1.00
13231;DHT22;6681;53.254;10.398;2023-08-24T03:36:06;19.00;1.00
13231;DHT22;6681;53.254;10.398;2023-08-24T03:38:31;19.00;1.00
13231;DHT22;6681;53.254;10.398;2023-08-24T03:41:04;19.00;1.00
13231;DHT22;6681;53.254;10.398;2023-08-24T03:43:32;19.00;1.00
13231;DHT22;6681;53.254;10.398;2023-08-24T03:45:59;19.10;1.00
13231;DHT22;6681;53.254;10.398;2023-08-24T03:48:24;19.10;1.00
13231;DHT22;6681;53.254;10.398;2023-08-24T03:50:53;19.10;1.00
13231;DHT22;6681;53.254;10.398;2023-08-24T03:53:18;19.10;1.00
13231;DHT22;6681;53.254;10.398;2023-08-24T03:55:47;19.10;1.00
13231;DHT22;6681;53.254;10.398;2023-08-24T03:58:14;19.00;1.00
13231;DHT22;6681;53.254;10.398;2023-08-24T04:00:39;19.00;1.00
13231;DHT22;6681;53.254;10.398;2023-08-24T04:03:07;18.90;1.00
13231;DHT22;6681;53.254;10.398;2023-08-24T04:05:33;18.90;1.00
13231;DHT22;6681;53.254;10.398;2023-08-24T04:07:58;18.90;1.00
13231;DHT22;6681;53.254;10.398;2023-08-24T04:10:26;18.90;1.00
13231;DHT22;6681;53.254;10.398;2023-08-24T04:12:52;18.80;1.00
13231;DHT22;6681;53.254;10.398;2023-08-24T04:15:18;18.80;1.00
13231;DHT22;6681;53.254;10.398;2023-08-24T04:17:44;18.70;1.00
13231;DHT22;6681;53.254;10.398;2023-08-24T04:20:10;18.70;1.00
13231;DHT22;6681;53.254;10.398;2023-08-24T04:22:36;18.80;1.00
13231;DHT22;6681;53.254;10.398;2023-08-24T04:25:02;18.80;1.00
13231;DHT22;6681;53.254;10.398;2023-08-24T04:27:28;18.80;1.00
13231;DHT22;6681;53.254;10.398;2023-08-24T04:29:53;18.70;1.00
13231;DHT22;6681;53.254;10.398;2023-08-24T04:32:19;18.70;1.00
13231;DHT22;6681;53.254;10.398;2023-08-24T04:34:45;18.60;1.00
13231;DHT22;6681;53.254;10.398;2023-08-24T04:37:10;18.60;1.00
13231;DHT22;6681;53.254;10.398;2023-08-24T04:39:36;18.50;1.00
13231;DHT22;6681;53.254;10.398;2023-08-24T04:42:02;18.50;1.00
13231;DHT22;6681;53.254;10.398;2023-08-24T04:44:28;18.50;1.00
13231;DHT22;6681;53.254;10.398;2023-08-24T04:46:54;18.50;1.00
13231;DHT22;6681;53.254;10.398;2023-08-24T04:49:19;18.50;1.00
13231;DHT22;6681;53.254;10.398;2023-08-24T04:51:45;18.50;1.00
13231;DHT22;6681;53.254;10.398;2023-08-24T04:54:10;18.50;1.00
13231;DHT22;6681;53.254;10.398;2023-08-24T04:56:36;18.50;1.00
13231;DHT22;6681;53.254;10.398;2023-08-24T04:59:02;18.50;1.00
13231;DHT22;6681;53.254;10.398;2023-08-24T05:01:28;18.50;1.00
13231;DHT22;6681;53.254;10.398;2023-08-24T05:03:55;18.60;1.00
13231;DHT22;6681;53.254;10.398;2023-08-24T05:06:21;18.60;1.00
13231;DHT22;6681;53.254;10.398;2023-08-24T05:08:47;18.60;1.00
13231;DHT22;6681;53.254;10.398;2023-08-24T05:11:33;18.60;1.00
13231;DHT22;6681;53.254;10.398;2023-08-24T05:13:58;18.60;1.00
13231;DHT22;6681;53.254;10.398;2023-08-24T05:16:24;18.60;1.00
13231;DHT22;6681;53.254;10.398;2023-08-24T05:18:50;18.60;1.00
13231;DHT22;6681;53.254;10.398;2023-08-24T05:21:15;18.60;1.00
13231;DHT22;6681;53.254;10.398;2023-08-24T05:23:41;18.60;1.00
13231;DHT22;6681;53.254;10.398;2023-08-24T05:26:07;18.60;1.00
13231;DHT22;6681;53.254;10.398;2023-08-24T05:28:32;18.60;1.00
13231;DHT22;6681;53.254;10.398;2023-08-24T05:30:58;18.70;1.00
13231;DHT22;6681;53.254;10.398;2023-08-24T05:33:25;18.70;1.00
13231;DHT22;6681;53.254;10.398;2023-08-24T05:35:51;18.70;1.00
13231;DHT22;6681;53.254;10.398;2023-08-24T05:38:17;18.70;1.00
13231;DHT22;6681;53.254;10.398;2023-08-24T05:40:43;18.80;1.00
13231;DHT22;6681;53.254;10.398;2023-08-24T05:43:12;18.70;1.00
13231;DHT22;6681;53.254;10.398;2023-08-24T05:45:37;18.80;1.00
13231;DHT22;6681;53.254;10.398;2023-08-24T05:48:05;18.80;1.00
13231;DHT22;6681;53.254;10.398;2023-08-24T05:50:31;18.70;1.00
13231;DHT22;6681;53.254;10.398;2023-08-24T05:52:56;18.70;1.00
13231;DHT22;6681;53.254;10.398;2023-08-24T05:55:22;18.70;1.00
13231;DHT22;6681;53.254;10.398;2023-08-24T05:57:48;18.70;1.00
13231;DHT22;6681;53.254;10.398;2023-08-24T06:00:14;18.70;1.00
13231;DHT22;6681;53.254;10.398;2023-08-24T06:02:40;18.70;1.00
13231;DHT22;6681;53.254;10.398;2023-08-24T06:05:06;18.70;1.00
13231;DHT22;6681;53.254;10.398;2023-08-24T06:07:33;18.80;1.00
13231;DHT22;6681;53.254;10.398;2023-08-24T06:09:59;18.80;1.00
13231;DHT22;6681;53.254;10.398;2023-08-24T06:12:25;18.70;1.00
13231;DHT22;6681;53.254;10.398;2023-08-24T06:14:50;18.70;1.00
13231;DHT22;6681;53.254;10.398;2023-08-24T06:17:16;18.70;1.00
13231;DHT22;6681;53.254;10.398;2023-08-24T06:19:43;18.70;1.00
13231;DHT22;6681;53.254;10.398;2023-08-24T06:22:08;18.70;1.00
13231;DHT22;6681;53.254;10.398;2023-08-24T06:24:35;18.80;1.00
13231;DHT22;6681;53.254;10.398;2023-08-24T06:27:01;18.80;1.00
13231;DHT22;6681;53.254;10.398;2023-08-24T06:29:30;18.90;1.00
13231;DHT22;6681;53.254;10.398;2023-08-24T06:31:56;18.90;1.00
13231;DHT22;6681;53.254;10.398;2023-08-24T06:34:22;18.90;1.00
13231;DHT22;6681;53.254;10.398;2023-08-24T06:36:50;18.90;1.00
13231;DHT22;6681;53.254;10.398;2023-08-24T06:39:16;18.90;1.00
13231;DHT22;6681;53.254;10.398;2023-08-24T06:41:41;18.90;1.00
13231;DHT22;6681;53.254;10.398;2023-08-24T06:44:07;19.00;1.00
13231;DHT22;6681;53.254;10.398;2023-08-24T06:46:33;19.00;1.00
13231;DHT22;6681;53.254;10.398;2023-08-24T06:48:58;19.00;1.00
13231;DHT22;6681;53.254;10.398;2023-08-24T06:51:26;19.00;1.00
13231;DHT22;6681;53.254;10.398;2023-08-24T06:53:51;19.00;1.00
13231;DHT22;6681;53.254;10.398;2023-08-24T06:56:17;19.00;1.00
13231;DHT22;6681;53.254;10.398;2023-08-24T06:58:44;19.00;1.00
13231;DHT22;6681;53.254;10.398;2023-08-24T07:01:10;19.00;1.00
13231;DHT22;6681;53.254;10.398;2023-08-24T07:03:36;19.10;1.00
13231;DHT22;6681;53.254;10.398;2023-08-24T07:06:02;19.10;1.00
13231;DHT22;6681;53.254;10.398;2023-08-24T07:08:28;19.10;1.00
13231;DHT22;6681;53.254;10.398;2023-08-24T07:10:54;19.10;1.00
13231;DHT22;6681;53.254;10.398;2023-08-24T07:13:19;19.10;1.00
13231;DHT22;6681;53.254;10.398;2023-08-24T07:15:45;19.10;1.00
13231;DHT22;6681;53.254;10.398;2023-08-24T07:18:11;19.20;1.00
13231;DHT22;6681;53.254;10.398;2023-08-24T07:20:37;19.20;1.00
13231;DHT22;6681;53.254;10.398;2023-08-24T07:23:03;19.30;1.00
13231;DHT22;6681;53.254;10.398;2023-08-24T07:25:29;19.50;1.00
13231;DHT22;6681;53.254;10.398;2023-08-24T07:27:55;19.50;1.00
13231;DHT22;6681;53.254;10.398;2023-08-24T07:30:24;19.60;1.00
13231;DHT22;6681;53.254;10.398;2023-08-24T07:32:50;19.70;1.00
13231;DHT22;6681;53.254;10.398;2023-08-24T07:35:16;19.70;1.00
13231;DHT22;6681;53.254;10.398;2023-08-24T07:37:41;19.80;1.00
13231;DHT22;6681;53.254;10.398;2023-08-24T07:40:07;19.70;1.00
13231;DHT22;6681;53.254;10.398;2023-08-24T07:42:46;19.70;1.00
13231;DHT22;6681;53.254;10.398;2023-08-24T07:45:13;19.80;1.00
13231;DHT22;6681;53.254;10.398;2023-08-24T07:47:41;19.70;1.00
13231;DHT22;6681;53.254;10.398;2023-08-24T07:50:08;19.80;1.00
13231;DHT22;6681;53.254;10.398;2023-08-24T07:52:34;19.90;1.00
13231;DHT22;6681;53.254;10.398;2023-08-24T07:55:00;20.00;1.00
13231;DHT22;6681;53.254;10.398;2023-08-24T07:57:28;20.00;1.00
13231;DHT22;6681;53.254;10.398;2023-08-24T07:59:54;20.10;1.00
13231;DHT22;6681;53.254;10.398;2023-08-24T08:02:20;20.20;1.00
13231;DHT22;6681;53.254;10.398;2023-08-24T08:04:46;20.20;1.00
13231;DHT22;6681;53.254;10.398;2023-08-24T08:07:11;20.30;1.00
13231;DHT22;6681;53.254;10.398;2023-08-24T08:09:38;20.30;1.00
13231;DHT22;6681;53.254;10.398;2023-08-24T08:12:03;20.30;1.00
13231;DHT22;6681;53.254;10.398;2023-08-24T08:14:30;19.60;1.00
13231;DHT22;6681;53.254;10.398;2023-08-24T08:16:58;20.50;1.00
13231;DHT22;6681;53.254;10.398;2023-08-24T08:19:24;20.50;1.00
13231;DHT22;6681;53.254;10.398;2023-08-24T08:21:52;20.60;1.00
13231;DHT22;6681;53.254;10.398;2023-08-24T08:24:17;20.70;1.00
13231;DHT22;6681;53.254;10.398;2023-08-24T08:26:43;20.70;1.00
13231;DHT22;6681;53.254;10.398;2023-08-24T08:29:09;20.70;1.00
13231;DHT22;6681;53.254;10.398;2023-08-24T08:31:34;20.80;1.00
13231;DHT22;6681;53.254;10.398;2023-08-24T08:34:01;21.00;1.00
13231;DHT22;6681;53.254;10.398;2023-08-24T08:36:26;21.00;1.00
13231;DHT22;6681;53.254;10.398;2023-08-24T08:38:52;21.00;1.00
13231;DHT22;6681;53.254;10.398;2023-08-24T08:41:22;21.00;1.00
13231;DHT22;6681;53.254;10.398;2023-08-24T08:43:49;21.20;1.00
13231;DHT22;6681;53.254;10.398;2023-08-24T08:46:15;21.30;1.00
13231;DHT22;6681;53.254;10.398;2023-08-24T08:48:42;21.30;1.00
13231;DHT22;6681;53.254;10.398;2023-08-24T08:51:09;21.40;1.00
13231;DHT22;6681;53.254;10.398;2023-08-24T08:53:35;21.40;1.00
13231;DHT22;6681;53.254;10.398;2023-08-24T08:56:01;21.40;1.00
13231;DHT22;6681;53.254;10.398;2023-08-24T08:58:34;21.50;1.00
13231;DHT22;6681;53.254;10.398;2023-08-24T09:01:02;21.50;1.00
13231;DHT22;6681;53.254;10.398;2023-08-24T09:03:31;21.60;1.00
13231;DHT22;6681;53.254;10.398;2023-08-24T09:05:57;21.60;1.00
13231;DHT22;6681;53.254;10.398;2023-08-24T09:08:25;21.80;1.00
13231;DHT22;6681;53.254;10.398;2023-08-24T09:10:50;21.80;99.90
13231;DHT22;6681;53.254;10.398;2023-08-24T09:13:17;21.90;1.00
13231;DHT22;6681;53.254;10.398;2023-08-24T09:15:43;22.00;1.00
13231;DHT22;6681;53.254;10.398;2023-08-24T09:18:08;22.10;99.90
13231;DHT22;6681;53.254;10.398;2023-08-24T09:20:34;22.10;99.90
13231;DHT22;6681;53.254;10.398;2023-08-24T09:23:00;22.10;99.90
13231;DHT22;6681;53.254;10.398;2023-08-24T09:25:26;22.10;99.90
13231;DHT22;6681;53.254;10.398;2023-08-24T09:27:58;22.10;99.90
13231;DHT22;6681;53.254;10.398;2023-08-24T09:30:45;22.30;99.90
13231;DHT22;6681;53.254;10.398;2023-08-24T09:33:10;22.30;1.00
13231;DHT22;6681;53.254;10.398;2023-08-24T09:35:37;22.40;99.90
13231;DHT22;6681;53.254;10.398;2023-08-24T09:38:23;22.40;87.20
13231;DHT22;6681;53.254;10.398;2023-08-24T09:40:53;22.50;99.90
13231;DHT22;6681;53.254;10.398;2023-08-24T09:43:19;22.60;1.00
13231;DHT22;6681;53.254;10.398;2023-08-24T09:45:55;22.60;1.00
13231;DHT22;6681;53.254;10.398;2023-08-24T09:48:21;22.70;1.00
13231;DHT22;6681;53.254;10.398;2023-08-24T09:50:49;22.70;1.00
13231;DHT22;6681;53.254;10.398;2023-08-24T09:53:22;22.80;1.00
13231;DHT22;6681;53.254;10.398;2023-08-24T09:56:08;23.00;1.00
13231;DHT22;6681;53.254;10.398;2023-08-24T09:58:34;23.10;1.00
13231;DHT22;6681;53.254;10.398;2023-08-24T10:01:01;23.10;99.90
13231;DHT22;6681;53.254;10.398;2023-08-24T10:03:30;23.20;1.00
13231;DHT22;6681;53.254;10.398;2023-08-24T10:05:57;23.30;1.00
13231;DHT22;6681;53.254;10.398;2023-08-24T10:08:27;23.30;99.90
13231;DHT22;6681;53.254;10.398;2023-08-24T10:10:56;23.40;99.90
13231;DHT22;6681;53.254;10.398;2023-08-24T10:16:05;23.50;1.00
13231;DHT22;6681;53.254;10.398;2023-08-24T10:18:31;23.60;1.00
13231;DHT22;6681;53.254;10.398;2023-08-24T10:20:57;23.70;1.00
13231;DHT22;6681;53.254;10.398;2023-08-24T10:23:23;23.80;1.00
13231;DHT22;6681;53.254;10.398;2023-08-24T10:25:51;23.90;45.20
13231;DHT22;6681;53.254;10.398;2023-08-24T10:28:18;23.90;1.00
13231;DHT22;6681;53.254;10.398;2023-08-24T10:30:45;23.90;99.90
13231;DHT22;6681;53.254;10.398;2023-08-24T10:33:13;23.90;58.40
13231;DHT22;6681;53.254;10.398;2023-08-24T10:35:40;23.90;99.90
13231;DHT22;6681;53.254;10.398;2023-08-24T10:38:06;24.00;67.40
13231;DHT22;6681;53.254;10.398;2023-08-24T10:40:32;24.00;1.00
13231;DHT22;6681;53.254;10.398;2023-08-24T10:43:02;24.10;1.00
13231;DHT22;6681;53.254;10.398;2023-08-24T10:45:59;24.20;1.00
13231;DHT22;6681;53.254;10.398;2023-08-24T10:49:18;24.30;1.00
13231;DHT22;6681;53.254;10.398;2023-08-24T10:53:48;24.40;99.90
13231;DHT22;6681;53.254;10.398;2023-08-24T10:56:17;24.40;99.90
13231;DHT22;6681;53.254;10.398;2023-08-24T10:58:44;24.60;51.00
13231;DHT22;6681;53.254;10.398;2023-08-24T11:01:19;24.70;99.90
13231;DHT22;6681;53.254;10.398;2023-08-24T11:03:56;24.70;1.00
13231;DHT22;6681;53.254;10.398;2023-08-24T11:06:23;24.80;99.90
13231;DHT22;6681;53.254;10.398;2023-08-24T11:09:05;24.90;99.90
13231;DHT22;6681;53.254;10.398;2023-08-24T11:11:32;25.00;99.90
13231;DHT22;6681;53.254;10.398;2023-08-24T11:14:14;25.10;99.90
13231;DHT22;6681;53.254;10.398;2023-08-24T11:16:46;25.10;99.90
13231;DHT22;6681;53.254;10.398;2023-08-24T11:19:12;25.20;1.00
13231;DHT22;6681;53.254;10.398;2023-08-24T11:21:40;25.30;99.90
13231;DHT22;6681;53.254;10.398;2023-08-24T11:24:06;25.40;1.00
13231;DHT22;6681;53.254;10.398;2023-08-24T11:26:34;25.40;99.90
13231;DHT22;6681;53.254;10.398;2023-08-24T11:28:59;25.50;1.00
13231;DHT22;6681;53.254;10.398;2023-08-24T11:31:25;25.50;1.00
13231;DHT22;6681;53.254;10.398;2023-08-24T11:33:54;25.60;1.00
13231;DHT22;6681;53.254;10.398;2023-08-24T11:36:23;25.50;99.90
13231;DHT22;6681;53.254;10.398;2023-08-24T11:38:52;25.60;99.90
13231;DHT22;6681;53.254;10.398;2023-08-24T11:41:19;25.50;1.00
13231;DHT22;6681;53.254;10.398;2023-08-24T11:43:47;25.60;1.00
13231;DHT22;6681;53.254;10.398;2023-08-24T11:46:19;25.80;1.00
13231;DHT22;6681;53.254;10.398;2023-08-24T11:48:46;25.90;1.00
13231;DHT22;6681;53.254;10.398;2023-08-24T11:51:12;26.10;26.70
13231;DHT22;6681;53.254;10.398;2023-08-24T11:53:45;26.20;1.00
13231;DHT22;6681;53.254;10.398;2023-08-24T11:56:14;26.40;1.00
13231;DHT22;6681;53.254;10.398;2023-08-24T11:58:43;26.40;1.00
13231;DHT22;6681;53.254;10.398;2023-08-24T12:01:09;26.50;1.00
13231;DHT22;6681;53.254;10.398;2023-08-24T12:03:39;26.50;1.00
13231;DHT22;6681;53.254;10.398;2023-08-24T12:06:14;26.50;99.90
13231;DHT22;6681;53.254;10.398;2023-08-24T12:08:41;26.60;99.90
13231;DHT22;6681;53.254;10.398;2023-08-24T12:11:15;26.70;1.00
13231;DHT22;6681;53.254;10.398;2023-08-24T12:13:51;26.70;1.00
13231;DHT22;6681;53.254;10.398;2023-08-24T12:16:18;26.70;1.00
13231;DHT22;6681;53.254;10.398;2023-08-24T12:18:53;26.80;1.00
13231;DHT22;6681;53.254;10.398;2023-08-24T12:21:20;26.80;1.00
13231;DHT22;6681;53.254;10.398;2023-08-24T12:24:05;26.80;99.90
13231;DHT22;6681;53.254;10.398;2023-08-24T12:26:35;26.80;96.90
13231;DHT22;6681;53.254;10.398;2023-08-24T12:29:08;26.90;1.00
13231;DHT22;6681;53.254;10.398;2023-08-24T12:31:36;27.00;1.00
13231;DHT22;6681;53.254;10.398;2023-08-24T12:34:06;27.20;19.80
13231;DHT22;6681;53.254;10.398;2023-08-24T12:36:35;27.40;24.70
13231;DHT22;6681;53.254;10.398;2023-08-24T12:39:02;27.50;1.00
13231;DHT22;6681;53.254;10.398;2023-08-24T12:41:31;27.60;99.90
13231;DHT22;6681;53.254;10.398;2023-08-24T12:43:57;27.40;99.90
13231;DHT22;6681;53.254;10.398;2023-08-24T12:46:23;27.20;99.90
13231;DHT22;6681;53.254;10.398;2023-08-24T12:48:49;27.30;1.00
13231;DHT22;6681;53.254;10.398;2023-08-24T12:51:15;27.30;1.00
13231;DHT22;6681;53.254;10.398;2023-08-24T12:53:41;27.40;99.90
13231;DHT22;6681;53.254;10.398;2023-08-24T12:56:07;27.50;1.00
13231;DHT22;6681;53.254;10.398;2023-08-24T12:58:33;27.60;1.00
13231;DHT22;6681;53.254;10.398;2023-08-24T13:00:59;27.60;1.00
13231;DHT22;6681;53.254;10.398;2023-08-24T13:03:25;27.60;8.30
13231;DHT22;6681;53.254;10.398;2023-08-24T13:05:51;27.60;99.90
13231;DHT22;6681;53.254;10.398;2023-08-24T13:08:16;27.60;1.00
13231;DHT22;6681;53.254;10.398;2023-08-24T13:10:42;27.60;1.00
13231;DHT22;6681;53.254;10.398;2023-08-24T13:13:08;27.50;1.00
13231;DHT22;6681;53.254;10.398;2023-08-24T13:15:33;27.50;92.30
13231;DHT22;6681;53.254;10.398;2023-08-24T13:17:59;27.60;9.20
13231;DHT22;6681;53.254;10.398;2023-08-24T13:20:25;27.70;1.00
13231;DHT22;6681;53.254;10.398;2023-08-24T13:22:54;27.70;1.00
13231;DHT22;6681;53.254;10.398;2023-08-24T13:25:19;27.60;1.00
13231;DHT22;6681;53.254;10.398;2023-08-24T13:27:45;27.60;1.00
13231;DHT22;6681;53.254;10.398;2023-08-24T13:30:11;27.50;1.00
13231;DHT22;6681;53.254;10.398;2023-08-24T13:32:37;27.30;1.00
13231;DHT22;6681;53.254;10.398;2023-08-24T13:35:04;27.20;99.90
13231;DHT22;6681;53.254;10.398;2023-08-24T13:37:30;27.30;1.00
13231;DHT22;6681;53.254;10.398;2023-08-24T13:39:57;27.20;1.00
13231;DHT22;6681;53.254;10.398;2023-08-24T13:42:23;27.20;1.00
13231;DHT22;6681;53.254;10.398;2023-08-24T13:44:48;27.20;1.00
13231;DHT22;6681;53.254;10.398;2023-08-24T13:47:14;27.10;1.00
13231;DHT22;6681;53.254;10.398;2023-08-24T13:49:39;27.20;1.00
13231;DHT22;6681;53.254;10.398;2023-08-24T13:52:05;27.20;1.00
13231;DHT22;6681;53.254;10.398;2023-08-24T13:54:31;27.20;99.90
13231;DHT22;6681;53.254;10.398;2023-08-24T13:56:57;27.30;1.00
13231;DHT22;6681;53.254;10.398;2023-08-24T13:59:25;27.30;99.90
13231;DHT22;6681;53.254;10.398;2023-08-24T14:01:51;27.30;1.00
13231;DHT22;6681;53.254;10.398;2023-08-24T14:04:16;27.30;1.00
13231;DHT22;6681;53.254;10.398;2023-08-24T14:06:42;27.20;99.90
13231;DHT22;6681;53.254;10.398;2023-08-24T14:09:08;27.30;1.00
13231;DHT22;6681;53.254;10.398;2023-08-24T14:11:33;27.40;99.90
13231;DHT22;6681;53.254;10.398;2023-08-24T14:13:59;27.50;1.00
13231;DHT22;6681;53.254;10.398;2023-08-24T14:16:25;27.90;30.20
13231;DHT22;6681;53.254;10.398;2023-08-24T14:18:52;28.10;1.00
13231;DHT22;6681;53.254;10.398;2023-08-24T14:21:18;28.40;1.00
13231;DHT22;6681;53.254;10.398;2023-08-24T14:23:44;28.70;1.00
13231;DHT22;6681;53.254;10.398;2023-08-24T14:26:10;28.70;99.90
13231;DHT22;6681;53.254;10.398;2023-08-24T14:28:49;28.60;99.90
13231;DHT22;6681;53.254;10.398;2023-08-24T14:31:16;28.40;99.90
13231;DHT22;6681;53.254;10.398;2023-08-24T14:33:41;28.40;99.90
13231;DHT22;6681;53.254;10.398;2023-08-24T14:36:07;28.40;99.90
13231;DHT22;6681;53.254;10.398;2023-08-24T14:38:33;28.20;99.90
13231;DHT22;6681;53.254;10.398;2023-08-24T14:40:58;27.90;99.90
13231;DHT22;6681;53.254;10.398;2023-08-24T14:43:28;27.80;99.90
13231;DHT22;6681;53.254;10.398;2023-08-24T14:45:54;27.80;99.90
13231;DHT22;6681;53.254;10.398;2023-08-24T14:48:19;27.70;99.90
13231;DHT22;6681;53.254;10.398;2023-08-24T14:50:45;27.70;99.90
13231;DHT22;6681;53.254;10.398;2023-08-24T14:53:11;27.60;99.90
13231;DHT22;6681;53.254;10.398;2023-08-24T14:55:40;27.60;99.90
13231;DHT22;6681;53.254;10.398;2023-08-24T14:58:05;27.60;99.90
13231;DHT22;6681;53.254;10.398;2023-08-24T15:00:31;27.50;1.00
13231;DHT22;6681;53.254;10.398;2023-08-24T15:02:57;27.40;99.90
13231;DHT22;6681;53.254;10.398;2023-08-24T15:05:23;27.30;99.90
13231;DHT22;6681;53.254;10.398;2023-08-24T15:07:49;27.10;1.00
13231;DHT22;6681;53.254;10.398;2023-08-24T15:10:15;27.10;99.90
13231;DHT22;6681;53.254;10.398;2023-08-24T15:12:43;27.00;99.90
13231;DHT22;6681;53.254;10.398;2023-08-24T15:15:09;27.00;1.00
13231;DHT22;6681;53.254;10.398;2023-08-24T15:17:35;26.90;99.90
13231;DHT22;6681;53.254;10.398;2023-08-24T15:20:02;26.80;99.90
13231;DHT22;6681;53.254;10.398;2023-08-24T15:22:31;26.70;99.90
13231;DHT22;6681;53.254;10.398;2023-08-24T15:24:58;26.70;1.00
13231;DHT22;6681;53.254;10.398;2023-08-24T15:27:24;26.70;77.30
13231;DHT22;6681;53.254;10.398;2023-08-24T15:29:50;26.70;1.00
13231;DHT22;6681;53.254;10.398;2023-08-24T15:32:19;26.70;1.00
13231;DHT22;6681;53.254;10.398;2023-08-24T15:34:45;26.60;99.90
13231;DHT22;6681;53.254;10.398;2023-08-24T15:37:10;26.70;1.00
13231;DHT22;6681;53.254;10.398;2023-08-24T15:39:37;26.70;1.00
13231;DHT22;6681;53.254;10.398;2023-08-24T15:42:04;26.70;8.70
13231;DHT22;6681;53.254;10.398;2023-08-24T15:44:30;26.60;18.10
13231;DHT22;6681;53.254;10.398;2023-08-24T15:46:55;26.60;99.90